createdAt,value
2023-01-17T00:01:06.895Z,0.60
2023-01-17T00:03:34.149Z,0.60
2023-01-17T00:06:19.098Z,0.95
2023-01-17T00:09:03.858Z,0.70
2023-01-17T00:11:30.215Z,0.90
2023-01-17T00:13:56.538Z,1.20
2023-01-17T00:16:22.817Z,0.75
2023-01-17T00:19:09.042Z,0.80
2023-01-17T00:21:54.117Z,0.47
2023-01-17T00:24:39.189Z,0.63
2023-01-17T00:27:14.832Z,0.80
2023-01-17T00:39:25.842Z,0.38
2023-01-17T00:41:52.091Z,0.65
2023-01-17T00:44:36.962Z,0.50
2023-01-17T00:47:21.718Z,0.40
2023-01-17T00:50:06.632Z,0.40
2023-01-17T00:52:51.339Z,0.45
2023-01-17T00:55:36.131Z,1.00
2023-01-17T00:58:24.452Z,0.80
2023-01-17T01:01:09.212Z,0.40
2023-01-17T01:03:54.311Z,0.65
2023-01-17T01:06:38.953Z,0.55
2023-01-17T01:09:24.451Z,0.50
2023-01-17T01:12:09.340Z,1.13
2023-01-17T01:14:54.236Z,1.10
2023-01-17T01:17:39.235Z,0.73
2023-01-17T01:20:24.262Z,0.60
2023-01-17T01:23:09.197Z,0.82
2023-01-17T01:25:54.436Z,0.70
2023-01-17T01:28:39.258Z,0.52
2023-01-17T01:31:24.556Z,0.63
2023-01-17T01:33:51.646Z,0.60
2023-01-17T01:36:17.889Z,0.55
2023-01-17T01:38:44.190Z,0.50
2023-01-17T01:41:10.753Z,0.30
2023-01-17T01:43:40.472Z,1.20
2023-01-17T01:46:06.980Z,1.02
2023-01-17T01:48:41.928Z,0.45
2023-01-17T01:51:12.001Z,0.52
2023-01-17T01:53:41.774Z,0.55
2023-01-17T01:56:10.733Z,0.60
2023-01-17T01:58:37.897Z,1.45
2023-01-17T02:01:05.017Z,0.57
2023-01-17T02:03:32.503Z,0.73
2023-01-17T02:06:14.862Z,0.52
2023-01-17T02:08:41.717Z,0.45
2023-01-17T02:11:08.096Z,0.60
2023-01-17T02:13:34.620Z,0.73
2023-01-17T02:16:00.944Z,0.68
2023-01-17T02:18:39.096Z,0.65
2023-01-17T02:21:05.407Z,0.50
2023-01-17T02:23:44.293Z,1.15
2023-01-17T02:26:19.793Z,0.40
2023-01-17T02:28:46.120Z,0.50
2023-01-17T02:31:14.901Z,0.50
2023-01-17T02:34:00.109Z,0.50
2023-01-17T02:36:30.237Z,0.40
2023-01-17T02:39:00.237Z,0.95
2023-01-17T02:41:43.677Z,0.93
2023-01-17T02:44:10.846Z,0.82
2023-01-17T02:46:45.108Z,0.70
2023-01-17T02:49:11.867Z,0.95
2023-01-17T02:51:52.313Z,0.85
2023-01-17T02:54:28.375Z,1.27
2023-01-17T02:57:06.800Z,1.05
2023-01-17T02:59:51.990Z,0.80
2023-01-17T03:02:18.465Z,0.80
2023-01-17T03:04:48.683Z,1.02
2023-01-17T03:07:17.475Z,0.75
2023-01-17T03:09:48.494Z,0.43
2023-01-17T03:12:15.086Z,0.95
2023-01-17T03:14:41.969Z,0.70
2023-01-17T03:17:08.993Z,1.05
2023-01-17T03:19:35.308Z,1.10
2023-01-17T03:22:01.607Z,0.70
2023-01-17T03:24:27.934Z,0.77
2023-01-17T03:26:54.217Z,0.65
2023-01-17T03:29:20.503Z,0.68
2023-01-17T03:31:46.754Z,1.15
2023-01-17T03:34:13.124Z,0.70
2023-01-17T03:36:39.485Z,0.80
2023-01-17T03:39:05.855Z,0.80
2023-01-17T03:41:32.174Z,0.55
2023-01-17T03:43:58.526Z,1.25
2023-01-17T03:46:25.658Z,0.75
2023-01-17T03:48:52.239Z,0.47
2023-01-17T03:51:18.850Z,0.57
2023-01-17T03:53:46.881Z,0.52
2023-01-17T03:56:13.985Z,0.75
2023-01-17T03:58:40.832Z,0.90
2023-01-17T04:01:07.276Z,1.85
2023-01-17T04:03:33.826Z,0.75
2023-01-17T04:06:00.117Z,0.50
2023-01-17T04:08:26.488Z,0.55
2023-01-17T04:10:52.855Z,0.88
2023-01-17T04:13:19.135Z,0.90
2023-01-17T04:15:46.099Z,0.90
2023-01-17T04:18:12.874Z,1.17
2023-01-17T04:20:40.507Z,0.63
2023-01-17T04:23:07.035Z,0.52
2023-01-17T04:25:33.572Z,0.63
2023-01-17T04:28:00.928Z,0.85
2023-01-17T04:30:27.787Z,0.43
2023-01-17T04:32:54.494Z,1.05
2023-01-17T04:35:21.019Z,1.08
2023-01-17T04:37:47.540Z,0.70
2023-01-17T04:40:14.409Z,0.95
2023-01-17T04:42:40.870Z,0.80
2023-01-17T04:45:07.924Z,1.00
2023-01-17T04:47:34.474Z,0.80
2023-01-17T04:50:00.754Z,0.77
2023-01-17T04:52:27.082Z,0.88
2023-01-17T04:54:53.433Z,1.13
2023-01-17T04:57:20.125Z,1.10
2023-01-17T04:59:46.829Z,0.98
2023-01-17T05:02:14.104Z,0.77
2023-01-17T05:04:40.915Z,0.57
2023-01-17T05:07:07.284Z,0.63
2023-01-17T05:09:33.559Z,0.47
2023-01-17T05:11:59.832Z,0.88
2023-01-17T05:14:26.416Z,0.70
2023-01-17T05:16:56.637Z,0.93
2023-01-17T05:19:23.649Z,0.82
2023-01-17T05:21:49.971Z,0.65
2023-01-17T05:24:16.368Z,1.02
2023-01-17T05:26:43.213Z,0.75
2023-01-17T05:29:10.032Z,0.90
2023-01-17T05:31:36.756Z,0.77
2023-01-17T05:34:03.260Z,0.60
2023-01-17T05:36:29.927Z,0.82
2023-01-17T05:38:56.200Z,0.95
2023-01-17T05:41:22.615Z,0.63
2023-01-17T05:43:48.875Z,0.60
2023-01-17T05:46:16.182Z,0.60
2023-01-17T05:48:42.777Z,0.77
2023-01-17T05:51:09.127Z,0.88
2023-01-17T05:53:35.431Z,0.65
2023-01-17T05:56:01.731Z,0.60
2023-01-17T05:58:28.071Z,0.80
2023-01-17T06:00:55.328Z,1.25
2023-01-17T06:03:21.650Z,0.95
2023-01-17T06:05:48.052Z,0.82
2023-01-17T06:08:14.423Z,0.90
2023-01-17T06:10:40.872Z,0.65
2023-01-17T06:13:08.310Z,1.23
2023-01-17T06:15:35.390Z,1.17
2023-01-17T06:18:05.748Z,1.10
2023-01-17T06:20:33.263Z,0.65
2023-01-17T06:23:00.286Z,1.05
2023-01-17T06:25:26.658Z,0.73
2023-01-17T06:27:55.271Z,0.80
2023-01-17T06:30:21.644Z,0.98
2023-01-17T06:32:54.154Z,0.80
2023-01-17T06:35:21.002Z,1.17
2023-01-17T06:37:50.075Z,1.10
2023-01-17T06:40:16.496Z,1.50
2023-01-17T06:42:42.847Z,1.50
2023-01-17T06:45:09.434Z,1.50
2023-01-17T06:47:39.568Z,1.48
2023-01-17T06:50:07.036Z,1.85
2023-01-17T06:52:33.387Z,2.70
2023-01-17T06:55:00.405Z,1.73
2023-01-17T06:57:26.933Z,1.70
2023-01-17T06:59:53.244Z,1.50
2023-01-17T07:02:19.569Z,2.08
2023-01-17T07:04:45.903Z,2.20
2023-01-17T07:07:12.903Z,2.05
2023-01-17T07:09:39.285Z,2.05
2023-01-17T07:12:05.611Z,2.60
2023-01-17T07:14:31.932Z,2.45
2023-01-17T07:16:58.246Z,2.50
2023-01-17T07:19:24.703Z,2.28
2023-01-17T07:21:52.383Z,2.88
2023-01-17T07:24:19.222Z,2.50
2023-01-17T07:26:49.164Z,2.17
2023-01-17T07:29:15.605Z,2.42
2023-01-17T07:31:41.988Z,3.05
2023-01-17T07:34:08.385Z,2.78
2023-01-17T07:36:34.845Z,2.63
2023-01-17T07:39:01.165Z,3.20
2023-01-17T07:41:27.612Z,2.95
2023-01-17T07:43:56.216Z,3.05
2023-01-17T07:46:23.216Z,3.20
2023-01-17T07:48:49.572Z,2.65
2023-01-17T07:51:17.770Z,2.88
2023-01-17T07:53:44.035Z,3.42
2023-01-17T07:56:10.338Z,4.45
2023-01-17T07:58:36.630Z,3.42
2023-01-17T08:01:04.290Z,4.35
2023-01-17T08:03:32.452Z,3.67
2023-01-17T08:05:59.117Z,3.75
2023-01-17T08:08:25.364Z,4.20
2023-01-17T08:10:51.679Z,3.47
2023-01-17T08:13:18.037Z,3.50
2023-01-17T08:15:44.337Z,2.70
2023-01-17T08:18:10.644Z,2.17
2023-01-17T08:20:36.914Z,1.80
2023-01-17T08:23:03.741Z,2.15
2023-01-17T08:25:30.037Z,2.15
2023-01-17T08:27:57.095Z,2.83
2023-01-17T08:30:23.938Z,2.40
2023-01-17T08:32:50.354Z,2.45
2023-01-17T08:35:16.666Z,2.15
2023-01-17T08:37:43.054Z,3.15
2023-01-17T08:40:11.030Z,2.42
2023-01-17T08:42:39.643Z,2.35
2023-01-17T08:45:06.832Z,3.10
2023-01-17T08:47:33.713Z,2.42
2023-01-17T08:50:01.380Z,1.75
2023-01-17T08:52:28.229Z,2.25
2023-01-17T08:54:54.568Z,1.63
2023-01-17T08:57:21.663Z,1.80
2023-01-17T08:59:48.172Z,2.40
2023-01-17T09:02:15.378Z,1.70
2023-01-17T09:04:45.210Z,2.40
2023-01-17T09:07:11.589Z,1.92
2023-01-17T09:09:37.911Z,1.70
2023-01-17T09:12:04.389Z,1.98
2023-01-17T09:14:30.654Z,1.80
2023-01-17T09:16:56.950Z,2.65
2023-01-17T09:19:23.229Z,2.45
2023-01-17T09:21:49.478Z,2.58
2023-01-17T09:24:15.915Z,1.88
2023-01-17T09:26:42.241Z,1.60
2023-01-17T09:29:08.556Z,1.80
2023-01-17T09:31:34.992Z,1.70
2023-01-17T09:34:01.784Z,1.13
2023-01-17T09:36:29.017Z,1.70
2023-01-17T09:38:55.928Z,4.15
2023-01-17T09:41:22.175Z,2.00
2023-01-17T09:44:11.177Z,2.53
2023-01-17T09:46:38.950Z,2.70
2023-01-17T09:49:08.563Z,3.10
2023-01-17T09:51:36.091Z,12.27
2023-01-17T09:54:03.107Z,3.42
2023-01-17T09:56:36.494Z,17.88
2023-01-17T09:59:18.947Z,4.28
2023-01-17T10:01:57.810Z,2.78
2023-01-17T10:04:39.192Z,1.70
2023-01-17T10:07:24.265Z,2.13
2023-01-17T10:10:09.459Z,1.77
2023-01-17T10:12:41.983Z,3.40
2023-01-17T10:15:26.923Z,2.53
2023-01-17T10:18:21.770Z,28.80
2023-01-17T10:20:55.302Z,7.32
2023-01-17T10:23:40.290Z,9.73
2023-01-17T10:26:20.597Z,2.13
2023-01-17T10:28:49.696Z,1.98
2023-01-17T10:31:16.034Z,2.60
2023-01-17T10:33:50.312Z,1.67
2023-01-17T10:36:38.021Z,2.03
2023-01-17T10:39:13.204Z,2.33
2023-01-17T10:41:44.745Z,2.22
2023-01-17T10:44:29.431Z,2.90
2023-01-17T10:46:55.669Z,2.35
2023-01-17T10:49:26.143Z,1.77
2023-01-17T10:52:11.412Z,2.55
2023-01-17T10:54:44.296Z,3.67
2023-01-17T10:57:15.312Z,2.60
2023-01-17T10:59:41.823Z,3.30
2023-01-17T11:02:23.229Z,2.35
2023-01-17T11:04:52.093Z,2.40
2023-01-17T11:07:19.833Z,3.50
2023-01-17T11:09:47.168Z,2.40
2023-01-17T11:12:19.551Z,3.20
2023-01-17T11:15:03.888Z,4.60
2023-01-17T11:17:30.751Z,3.58
2023-01-17T11:20:14.280Z,3.45
2023-01-17T11:22:42.438Z,3.45
2023-01-17T11:25:19.014Z,3.28
2023-01-17T11:27:57.165Z,4.40
2023-01-17T11:30:29.275Z,6.28
2023-01-17T11:33:00.040Z,3.42
2023-01-17T11:35:28.402Z,4.30
2023-01-17T11:38:05.805Z,3.80
2023-01-17T11:40:40.183Z,3.38
2023-01-17T11:43:14.200Z,4.28
2023-01-17T11:45:40.931Z,4.32
2023-01-17T11:48:13.450Z,3.80
2023-01-17T11:50:41.430Z,4.07
2023-01-17T11:53:15.846Z,3.88
2023-01-17T11:56:00.981Z,3.60
2023-01-17T11:58:28.250Z,4.30
2023-01-17T12:01:14.879Z,3.72
2023-01-17T12:03:50.990Z,3.28
2023-01-17T12:06:20.160Z,3.60
2023-01-17T12:08:53.404Z,3.58
2023-01-17T12:11:19.663Z,3.80
2023-01-17T12:14:01.381Z,3.78
2023-01-17T12:16:52.764Z,3.38
2023-01-17T12:19:19.020Z,2.70
2023-01-17T12:21:54.161Z,3.78
2023-01-17T12:24:35.581Z,2.70
2023-01-17T12:27:14.392Z,2.63
2023-01-17T12:29:48.680Z,2.88
2023-01-17T12:32:26.686Z,2.83
2023-01-17T12:35:02.854Z,2.47
2023-01-17T12:37:30.456Z,2.70
2023-01-17T12:40:16.151Z,3.08
2023-01-17T12:42:48.753Z,2.83
2023-01-17T12:45:20.149Z,2.33
2023-01-17T12:47:48.811Z,2.65
2023-01-17T12:50:15.198Z,2.38
2023-01-17T12:52:44.327Z,2.50
2023-01-17T12:55:14.441Z,1.77
2023-01-17T12:57:43.358Z,2.25
2023-01-17T13:00:14.269Z,2.15
2023-01-17T13:02:47.389Z,1.85
2023-01-17T13:05:17.221Z,1.90
2023-01-17T13:07:55.223Z,1.90
2023-01-17T13:10:25.177Z,1.58
2023-01-17T13:12:54.354Z,1.67
2023-01-17T13:15:23.389Z,1.77
2023-01-17T13:17:51.090Z,1.30
2023-01-17T13:20:17.593Z,1.73
2023-01-17T13:22:44.557Z,1.67
2023-01-17T13:25:43.414Z,1.27
2023-01-17T13:28:27.791Z,1.20
2023-01-17T13:31:01.583Z,1.05
2023-01-17T13:33:46.404Z,1.00
2023-01-17T13:36:15.471Z,1.27
2023-01-17T13:39:06.045Z,1.30
2023-01-17T13:41:38.329Z,0.88
2023-01-17T13:44:24.148Z,1.00
2023-01-17T13:46:53.510Z,2.22
2023-01-17T13:49:21.484Z,1.10
2023-01-17T13:52:05.494Z,1.35
2023-01-17T13:54:32.697Z,0.70
2023-01-17T13:57:42.194Z,1.13
2023-01-17T14:00:21.347Z,1.45
2023-01-17T14:02:48.939Z,1.33
2023-01-17T14:05:21.117Z,1.30
2023-01-17T14:07:58.668Z,1.35
2023-01-17T14:10:34.650Z,1.10
2023-01-17T14:13:01.538Z,0.98
2023-01-17T14:15:29.632Z,1.00
2023-01-17T14:17:58.040Z,1.23
2023-01-17T14:20:27.463Z,1.13
2023-01-17T14:22:58.428Z,1.38
2023-01-17T14:25:27.607Z,1.10
2023-01-17T14:27:59.773Z,1.38
2023-01-17T14:30:33.903Z,1.20
2023-01-17T14:33:04.805Z,1.33
2023-01-17T14:35:34.139Z,1.50
2023-01-17T14:38:05.538Z,1.50
2023-01-17T14:40:33.983Z,1.50
2023-01-17T14:43:00.345Z,1.13
2023-01-17T14:45:28.669Z,1.27
2023-01-17T14:47:56.595Z,1.20
2023-01-17T14:50:25.040Z,1.33
2023-01-17T14:53:09.790Z,1.20
2023-01-17T14:55:36.206Z,1.45
2023-01-17T14:58:02.619Z,1.40
2023-01-17T15:00:30.045Z,1.58
2023-01-17T15:02:57.191Z,1.27
2023-01-17T15:05:25.108Z,1.73
2023-01-17T15:07:53.032Z,1.45
2023-01-17T15:10:23.791Z,2.45
2023-01-17T15:12:52.259Z,2.42
2023-01-17T15:15:41.893Z,1.80
2023-01-17T15:18:14.449Z,1.65
2023-01-17T15:20:50.186Z,1.75
2023-01-17T15:25:46.776Z,1.98
2023-01-17T15:28:13.462Z,1.90
2023-01-17T15:30:59.911Z,2.08
2023-01-17T15:33:26.321Z,1.90
2023-01-17T15:35:59.804Z,1.52
2023-01-17T15:38:26.163Z,2.17
2023-01-17T15:40:52.580Z,1.67
2023-01-17T15:43:20.466Z,1.67
2023-01-17T15:45:55.439Z,1.70
2023-01-17T15:48:41.781Z,1.83
2023-01-17T15:51:09.984Z,1.40
2023-01-17T15:53:37.748Z,1.98
2023-01-17T15:56:27.144Z,2.20
2023-01-17T15:58:53.404Z,5.60
2023-01-17T16:01:26.990Z,8.68
2023-01-17T16:03:56.493Z,8.23
2023-01-17T16:06:35.637Z,5.00
2023-01-17T16:09:01.962Z,2.90
2023-01-17T16:11:29.373Z,2.30
2023-01-17T16:13:55.685Z,2.70
2023-01-17T16:16:23.600Z,2.35
2023-01-17T16:18:55.098Z,2.58
2023-01-17T16:21:23.105Z,2.70
2023-01-17T16:23:49.504Z,2.83
2023-01-17T16:26:16.402Z,2.75
2023-01-17T16:28:42.861Z,2.47
2023-01-17T16:31:09.286Z,2.35
2023-01-17T16:33:35.675Z,3.10
2023-01-17T16:36:02.250Z,2.42
2023-01-17T16:38:28.680Z,2.15
2023-01-17T16:40:55.097Z,2.67
2023-01-17T16:43:21.427Z,2.60
2023-01-17T16:45:52.668Z,2.50
2023-01-17T16:48:19.594Z,2.63
2023-01-17T16:50:48.139Z,2.70
2023-01-17T16:53:15.079Z,2.67
2023-01-17T16:55:41.973Z,2.78
2023-01-17T16:58:08.473Z,2.50
2023-01-17T17:00:35.269Z,2.85
2023-01-17T17:03:01.558Z,3.33
2023-01-17T17:05:27.873Z,2.85
2023-01-17T17:07:54.331Z,3.67
2023-01-17T17:10:21.861Z,2.92
2023-01-17T17:12:48.123Z,3.35
2023-01-17T17:15:14.717Z,2.97
2023-01-17T17:17:42.285Z,2.80
2023-01-17T17:20:13.399Z,2.88
2023-01-17T17:22:45.607Z,3.05
2023-01-17T17:25:12.334Z,2.63
2023-01-17T17:27:38.654Z,3.30
2023-01-17T17:30:05.653Z,3.30
2023-01-17T17:32:32.320Z,3.30
2023-01-17T17:34:59.834Z,3.25
2023-01-17T17:37:28.930Z,3.35
2023-01-17T17:39:55.757Z,3.10
2023-01-17T17:42:22.031Z,3.45
2023-01-17T17:44:48.416Z,3.03
2023-01-17T17:47:16.103Z,2.95
2023-01-17T17:49:43.455Z,3.40
2023-01-17T17:52:10.002Z,3.75
2023-01-17T17:54:36.366Z,3.30
2023-01-17T17:57:02.720Z,3.45
2023-01-17T17:59:29.780Z,3.03
2023-01-17T18:01:56.233Z,3.13
2023-01-17T18:04:22.669Z,3.45
2023-01-17T18:06:49.122Z,2.53
2023-01-17T18:09:15.526Z,3.00
2023-01-17T18:11:42.340Z,3.15
2023-01-17T18:14:10.747Z,2.65
2023-01-17T18:16:41.603Z,3.30
2023-01-17T18:19:08.626Z,3.65
2023-01-17T18:21:36.443Z,3.25
2023-01-17T18:24:03.983Z,3.03
2023-01-17T18:26:34.569Z,4.05
2023-01-17T18:29:01.846Z,7.18
2023-01-17T18:31:29.119Z,7.63
2023-01-17T18:33:56.376Z,7.32
2023-01-17T18:36:23.480Z,6.28
2023-01-17T18:38:49.923Z,6.20
2023-01-17T18:41:17.788Z,5.00
2023-01-17T18:43:44.450Z,5.68
2023-01-17T18:46:11.242Z,6.45
2023-01-17T18:48:38.159Z,5.63
2023-01-17T18:51:06.376Z,4.88
2023-01-17T18:53:33.532Z,4.50
2023-01-17T18:56:00.997Z,4.70
2023-01-17T18:58:28.240Z,4.18
2023-01-17T19:00:54.895Z,4.35
2023-01-17T19:03:28.829Z,3.67
2023-01-17T19:05:55.138Z,3.80
2023-01-17T19:08:21.450Z,4.03
2023-01-17T19:10:48.546Z,3.47
2023-01-17T19:13:14.843Z,4.45
2023-01-17T19:15:41.708Z,3.30
2023-01-17T19:18:08.050Z,4.68
2023-01-17T19:20:35.829Z,3.67
2023-01-17T19:23:02.207Z,3.85
2023-01-17T19:25:28.764Z,3.63
2023-01-17T19:27:55.286Z,3.78
2023-01-17T19:30:22.040Z,3.63
2023-01-17T19:32:51.283Z,4.68
2023-01-17T19:35:18.233Z,4.10
2023-01-17T19:37:46.005Z,4.03
2023-01-17T19:40:13.836Z,4.60
2023-01-17T19:42:40.707Z,4.03
2023-01-17T19:45:08.636Z,5.80
2023-01-17T19:47:35.008Z,6.03
2023-01-17T19:50:01.514Z,5.00
2023-01-17T19:52:29.594Z,6.78
2023-01-17T19:54:55.913Z,5.03
2023-01-17T19:57:24.175Z,4.55
2023-01-17T19:59:50.816Z,4.07
2023-01-17T20:02:17.196Z,3.53
2023-01-17T20:04:44.503Z,4.47
2023-01-17T20:07:10.827Z,3.50
2023-01-17T20:09:37.140Z,3.95
2023-01-17T20:12:03.648Z,4.35
2023-01-17T20:14:29.946Z,4.57
2023-01-17T20:16:56.193Z,4.10
2023-01-17T20:19:22.500Z,4.25
2023-01-17T20:21:48.845Z,4.72
2023-01-17T20:24:16.301Z,4.85
2023-01-17T20:26:44.155Z,4.72
2023-01-17T20:29:11.872Z,4.40
2023-01-17T20:31:38.702Z,5.35
2023-01-17T20:34:05.290Z,4.53
2023-01-17T20:36:33.055Z,6.25
2023-01-17T20:38:59.736Z,7.47
2023-01-17T20:41:29.234Z,7.22
2023-01-17T20:43:56.711Z,6.22
2023-01-17T20:46:24.741Z,5.18
2023-01-17T20:48:52.138Z,4.78
2023-01-17T20:51:18.759Z,4.97
2023-01-17T20:53:45.682Z,4.82
2023-01-17T20:56:13.641Z,5.50
2023-01-17T20:58:40.459Z,5.03
2023-01-17T21:01:07.593Z,4.65
2023-01-17T21:03:34.625Z,4.30
2023-01-17T21:06:01.941Z,4.53
2023-01-17T21:08:31.993Z,4.70
2023-01-17T21:10:58.580Z,5.38
2023-01-17T21:13:25.102Z,4.47
2023-01-17T21:15:51.966Z,4.57
2023-01-17T21:18:19.597Z,5.30
2023-01-17T21:20:46.112Z,4.82
2023-01-17T21:23:17.786Z,4.82
2023-01-17T21:25:57.977Z,4.10
2023-01-17T21:28:25.417Z,5.20
2023-01-17T21:30:52.162Z,4.97
2023-01-17T21:33:19.248Z,4.63
2023-01-17T21:35:45.899Z,5.00
2023-01-17T21:38:13.721Z,5.05
2023-01-17T21:40:40.401Z,5.00
2023-01-17T21:43:07.519Z,6.95
2023-01-17T21:45:37.674Z,4.97
2023-01-17T21:48:04.210Z,4.88
2023-01-17T21:50:33.605Z,5.55
2023-01-17T21:53:00.345Z,6.70
2023-01-17T21:55:45.584Z,6.70
2023-01-17T21:58:31.424Z,6.90
2023-01-17T22:01:07.735Z,4.63
2023-01-17T22:03:34.640Z,5.03
2023-01-17T22:06:01.532Z,5.70
2023-01-17T22:08:31.486Z,5.68
2023-01-17T22:11:01.795Z,6.22
2023-01-17T22:13:30.370Z,5.53
2023-01-17T22:16:00.669Z,6.30
2023-01-17T22:18:27.533Z,5.78
2023-01-17T22:20:53.873Z,6.43
2023-01-17T22:23:20.538Z,5.47
2023-01-17T22:25:46.862Z,6.93
2023-01-17T22:28:13.893Z,5.45
2023-01-17T22:30:40.249Z,5.07
2023-01-17T22:33:06.574Z,5.47
2023-01-17T22:35:32.890Z,5.13
2023-01-17T22:37:59.114Z,5.35
2023-01-17T22:40:26.151Z,5.05
2023-01-17T22:42:52.406Z,5.60
2023-01-17T22:45:19.959Z,5.30
2023-01-17T22:47:46.197Z,4.80
2023-01-17T22:50:13.152Z,4.85
2023-01-17T22:52:39.400Z,5.30
2023-01-17T22:55:06.126Z,4.72
2023-01-17T22:57:33.098Z,4.90
2023-01-17T22:59:59.354Z,4.82
2023-01-17T23:02:25.731Z,5.03
2023-01-17T23:04:52.036Z,5.57
2023-01-17T23:07:18.274Z,5.18
2023-01-17T23:09:44.884Z,4.57
2023-01-17T23:12:11.193Z,4.82
2023-01-17T23:14:55.975Z,4.65
2023-01-17T23:17:42.248Z,4.90
2023-01-17T23:20:09.758Z,4.72
2023-01-17T23:22:36.577Z,4.65
2023-01-17T23:25:02.826Z,4.22
2023-01-17T23:27:52.080Z,4.60
2023-01-17T23:30:19.681Z,4.75
2023-01-17T23:32:50.357Z,4.47
2023-01-17T23:35:17.566Z,4.85
2023-01-17T23:38:02.537Z,5.70
2023-01-17T23:40:30.538Z,5.53
2023-01-17T23:43:15.714Z,4.70
2023-01-17T23:45:42.044Z,5.03
2023-01-17T23:48:11.606Z,4.15
2023-01-17T23:50:38.535Z,4.80
2023-01-17T23:53:07.956Z,5.30
2023-01-17T23:55:35.291Z,5.55
2023-01-17T23:58:01.531Z,5.07
